Tropical Cyclones
[Index]
Main Index Home Page Stock Weather Photos Extreme Storms Discussion Storm News and Storm Chasing Reports Tropical Cyclones / Hurricanes / Typhoons Weather Data and Links Wild Fires / Bushfires Weather Observation Techniques Weather Picture Catalogue Tornado Pictures and Reports Stock Video Footage and DVDs for sale
Season 2011-2012 Tropical Cyclone 201215 Track Map
Season 2011-2012 Summaries (Operational Data): [AU] [SIO] [SPAC] [SH]
<<- Previous TC | 2011-2012 Season | Next TC ->>

click for intensity scale information  Lat/long Grid: Show Hide

 Date Labels: Show Hide

Operational Tropical Cyclone Data : JTWC Advisories

Name: 201215
Number: 1215

23 Feb 2012 18:00 UTC to 04 Mar 2012 06:00 UTC

    date/time    lat    long     hPa   cat  kts
2012-02-23 18   11.0    75.2    1010         15          
2012-02-24 00   11.0    74.9    1010         15          
2012-02-24 06   11.0    74.7    1010         15          
2012-02-24 18   10.8    74.3    1010         15          
2012-02-25 00   11.3    73.6    1010         15          
2012-02-25 06   11.7    72.7    1010         15          
2012-02-25 18   11.6    70.3    1010         15          
2012-02-26 00   11.8    69.4    1010         15          
2012-02-26 06   12.0    68.5    1010         15          
2012-02-27 06   11.2    70.9    1010         15          
2012-02-27 12   11.3    70.0    1010         15          
2012-02-27 18   11.4    69.4    1010         15          
2012-02-28 00   11.3    69.6    1010         15          
2012-02-28 06   11.4    69.5    1010         15          
2012-02-28 12   11.6    69.4    1010         15          
2012-02-28 18   12.4    69.5    1004         25          
2012-02-29 00   12.7    69.3    1004         25          
2012-02-29 06   12.9    68.6    1000         30          
2012-02-29 12   13.4    68.0    1000         30          
2012-02-29 18   13.8    67.3     996    1    35          
2012-03-01 00   14.1    66.3     996    1    35          
2012-03-01 06   14.5    65.3     996    1    35          
2012-03-01 12   15.0    64.3     996    1    35          
2012-03-01 18   15.3    63.7    1000         30          
2012-03-02 00   15.6    63.4    1000         30          
2012-03-02 06   16.0    63.3    1000         30          
2012-03-02 12   16.4    63.2    1000         30          
2012-03-02 18   16.6    62.9    1004         25          
2012-03-03 00   16.4    62.9    1004         25          
2012-03-03 06   16.3    63.1    1004         25          
2012-03-03 12   16.3    63.3    1004         25          
2012-03-03 18   16.4    63.4    1003         20          
2012-03-04 00   16.6    63.5    1007         20          
2012-03-04 06   16.9    63.8    1007         20          
Winds are 10-min average.

Tropical cyclone tracks developed by Michael Bath using operational warnings and advisories and Google Maps.


[Australian Severe Weather index] [Copyright Notice] [Email Contacts] [Search This Site] [Privacy Policy]
Document: tropical_cyclone_201215.htm Updated: 2 May 2017